sensor_id;sensor_type;location;lat;lon;timestamp;P1;durP1;ratioP1;P2;durP2;ratioP2
13611;SDS011;6877;51.436;6.774;2023-02-12T00:01:28;59.90;;;30.48;;
13611;SDS011;6877;51.436;6.774;2023-02-12T00:03:54;57.08;;;29.13;;
13611;SDS011;6877;51.436;6.774;2023-02-12T00:06:26;60.75;;;31.33;;
13611;SDS011;6877;51.436;6.774;2023-02-12T00:08:53;66.88;;;34.42;;
13611;SDS011;6877;51.436;6.774;2023-02-12T00:11:27;55.10;;;29.10;;
13611;SDS011;6877;51.436;6.774;2023-02-12T00:13:54;63.78;;;31.58;;
13611;SDS011;6877;51.436;6.774;2023-02-12T00:16:23;55.50;;;27.95;;
13611;SDS011;6877;51.436;6.774;2023-02-12T00:18:52;72.47;;;34.67;;
13611;SDS011;6877;51.436;6.774;2023-02-12T00:21:20;57.40;;;31.63;;
13611;SDS011;6877;51.436;6.774;2023-02-12T00:23:47;51.63;;;27.00;;
13611;SDS011;6877;51.436;6.774;2023-02-12T00:26:15;60.92;;;31.30;;
13611;SDS011;6877;51.436;6.774;2023-02-12T00:28:43;64.45;;;29.98;;
13611;SDS011;6877;51.436;6.774;2023-02-12T00:31:11;62.20;;;31.77;;
13611;SDS011;6877;51.436;6.774;2023-02-12T00:33:46;62.72;;;28.25;;
13611;SDS011;6877;51.436;6.774;2023-02-12T00:36:19;55.75;;;30.17;;
13611;SDS011;6877;51.436;6.774;2023-02-12T00:38:49;60.55;;;30.92;;
13611;SDS011;6877;51.436;6.774;2023-02-12T00:41:17;56.90;;;27.95;;
13611;SDS011;6877;51.436;6.774;2023-02-12T00:43:44;56.92;;;30.33;;
13611;SDS011;6877;51.436;6.774;2023-02-12T00:46:15;53.75;;;28.58;;
13611;SDS011;6877;51.436;6.774;2023-02-12T00:48:42;63.75;;;31.38;;
13611;SDS011;6877;51.436;6.774;2023-02-12T00:51:13;65.82;;;32.28;;
13611;SDS011;6877;51.436;6.774;2023-02-12T00:53:40;57.70;;;26.73;;
13611;SDS011;6877;51.436;6.774;2023-02-12T00:56:12;50.95;;;27.30;;
13611;SDS011;6877;51.436;6.774;2023-02-12T00:58:39;57.47;;;27.27;;
13611;SDS011;6877;51.436;6.774;2023-02-12T01:01:10;49.38;;;24.52;;
13611;SDS011;6877;51.436;6.774;2023-02-12T01:03:41;51.72;;;25.33;;
13611;SDS011;6877;51.436;6.774;2023-02-12T01:06:13;50.40;;;25.63;;
13611;SDS011;6877;51.436;6.774;2023-02-12T01:08:39;50.60;;;26.42;;
13611;SDS011;6877;51.436;6.774;2023-02-12T01:11:11;49.17;;;25.08;;
13611;SDS011;6877;51.436;6.774;2023-02-12T01:13:43;47.00;;;23.45;;
13611;SDS011;6877;51.436;6.774;2023-02-12T01:16:16;45.85;;;25.83;;
13611;SDS011;6877;51.436;6.774;2023-02-12T01:18:44;48.30;;;25.55;;
13611;SDS011;6877;51.436;6.774;2023-02-12T01:21:18;49.15;;;25.23;;
13611;SDS011;6877;51.436;6.774;2023-02-12T01:23:46;44.78;;;24.38;;
13611;SDS011;6877;51.436;6.774;2023-02-12T01:26:19;49.20;;;25.88;;
13611;SDS011;6877;51.436;6.774;2023-02-12T01:28:51;61.83;;;30.60;;
13611;SDS011;6877;51.436;6.774;2023-02-12T01:31:25;53.05;;;27.50;;
13611;SDS011;6877;51.436;6.774;2023-02-12T01:33:58;57.00;;;30.20;;
13611;SDS011;6877;51.436;6.774;2023-02-12T01:36:26;47.55;;;24.63;;
13611;SDS011;6877;51.436;6.774;2023-02-12T01:38:54;45.28;;;23.52;;
13611;SDS011;6877;51.436;6.774;2023-02-12T01:41:27;49.53;;;25.90;;
13611;SDS011;6877;51.436;6.774;2023-02-12T01:44:05;45.20;;;25.08;;
13611;SDS011;6877;51.436;6.774;2023-02-12T01:46:47;55.97;;;29.75;;
13611;SDS011;6877;51.436;6.774;2023-02-12T01:49:21;63.53;;;30.67;;
13611;SDS011;6877;51.436;6.774;2023-02-12T01:51:59;61.75;;;31.85;;
13611;SDS011;6877;51.436;6.774;2023-02-12T01:54:37;66.18;;;31.80;;
13611;SDS011;6877;51.436;6.774;2023-02-12T01:57:04;61.90;;;30.60;;
13611;SDS011;6877;51.436;6.774;2023-02-12T01:59:37;70.05;;;32.13;;
13611;SDS011;6877;51.436;6.774;2023-02-12T02:02:10;58.75;;;28.10;;
13611;SDS011;6877;51.436;6.774;2023-02-12T02:04:39;61.40;;;30.02;;
13611;SDS011;6877;51.436;6.774;2023-02-12T02:07:11;57.00;;;29.92;;
13611;SDS011;6877;51.436;6.774;2023-02-12T02:09:42;66.25;;;29.20;;
13611;SDS011;6877;51.436;6.774;2023-02-12T02:12:14;68.85;;;31.05;;
13611;SDS011;6877;51.436;6.774;2023-02-12T02:15:04;66.75;;;33.47;;
13611;SDS011;6877;51.436;6.774;2023-02-12T02:23:39;65.03;;;31.25;;
13611;SDS011;6877;51.436;6.774;2023-02-12T02:32:54;50.50;;;25.88;;
13611;SDS011;6877;51.436;6.774;2023-02-12T02:35:27;49.58;;;23.30;;
13611;SDS011;6877;51.436;6.774;2023-02-12T02:40:52;62.10;;;31.35;;
13611;SDS011;6877;51.436;6.774;2023-02-12T02:43:27;53.72;;;27.17;;
13611;SDS011;6877;51.436;6.774;2023-02-12T02:45:59;56.85;;;28.70;;
13611;SDS011;6877;51.436;6.774;2023-02-12T02:48:51;58.63;;;30.40;;
13611;SDS011;6877;51.436;6.774;2023-02-12T02:51:26;72.70;;;32.28;;
13611;SDS011;6877;51.436;6.774;2023-02-12T02:56:43;59.30;;;31.38;;
13611;SDS011;6877;51.436;6.774;2023-02-12T02:59:14;60.75;;;29.45;;
13611;SDS011;6877;51.436;6.774;2023-02-12T03:01:51;61.92;;;31.80;;
13611;SDS011;6877;51.436;6.774;2023-02-12T03:04:23;62.13;;;29.60;;
13611;SDS011;6877;51.436;6.774;2023-02-12T03:07:10;60.95;;;29.70;;
13611;SDS011;6877;51.436;6.774;2023-02-12T03:09:46;58.22;;;29.90;;
13611;SDS011;6877;51.436;6.774;2023-02-12T03:12:17;56.40;;;29.42;;
13611;SDS011;6877;51.436;6.774;2023-02-12T03:14:53;60.70;;;31.95;;
13611;SDS011;6877;51.436;6.774;2023-02-12T03:17:31;67.65;;;32.92;;
13611;SDS011;6877;51.436;6.774;2023-02-12T03:20:19;66.28;;;31.95;;
13611;SDS011;6877;51.436;6.774;2023-02-12T03:22:57;63.92;;;31.75;;
13611;SDS011;6877;51.436;6.774;2023-02-12T03:25:39;68.55;;;32.70;;
13611;SDS011;6877;51.436;6.774;2023-02-12T03:28:25;64.40;;;31.35;;
13611;SDS011;6877;51.436;6.774;2023-02-12T03:37:07;61.80;;;31.73;;
13611;SDS011;6877;51.436;6.774;2023-02-12T03:39:37;67.20;;;31.70;;
13611;SDS011;6877;51.436;6.774;2023-02-12T03:48:16;69.88;;;32.47;;
13611;SDS011;6877;51.436;6.774;2023-02-12T03:53:15;77.20;;;34.80;;
13611;SDS011;6877;51.436;6.774;2023-02-12T03:55:42;68.28;;;33.35;;
13611;SDS011;6877;51.436;6.774;2023-02-12T03:58:12;65.75;;;33.35;;
13611;SDS011;6877;51.436;6.774;2023-02-12T04:00:54;68.25;;;32.35;;
13611;SDS011;6877;51.436;6.774;2023-02-12T04:03:20;66.13;;;33.03;;
13611;SDS011;6877;51.436;6.774;2023-02-12T04:05:47;72.13;;;33.17;;
13611;SDS011;6877;51.436;6.774;2023-02-12T04:08:13;61.03;;;30.50;;
13611;SDS011;6877;51.436;6.774;2023-02-12T04:17:04;71.20;;;33.63;;
13611;SDS011;6877;51.436;6.774;2023-02-12T04:25:34;66.90;;;33.20;;
13611;SDS011;6877;51.436;6.774;2023-02-12T04:31:05;74.57;;;32.05;;
13611;SDS011;6877;51.436;6.774;2023-02-12T04:33:46;64.55;;;32.97;;
13611;SDS011;6877;51.436;6.774;2023-02-12T04:36:20;74.28;;;32.35;;
13611;SDS011;6877;51.436;6.774;2023-02-12T04:38:58;66.45;;;31.85;;
13611;SDS011;6877;51.436;6.774;2023-02-12T04:41:27;67.70;;;30.80;;
13611;SDS011;6877;51.436;6.774;2023-02-12T04:43:56;62.90;;;30.75;;
13611;SDS011;6877;51.436;6.774;2023-02-12T04:46:27;62.53;;;32.22;;
13611;SDS011;6877;51.436;6.774;2023-02-12T04:48:54;67.72;;;32.00;;
13611;SDS011;6877;51.436;6.774;2023-02-12T04:51:28;69.47;;;31.80;;
13611;SDS011;6877;51.436;6.774;2023-02-12T04:53:54;77.65;;;34.97;;
13611;SDS011;6877;51.436;6.774;2023-02-12T04:56:20;67.43;;;33.40;;
13611;SDS011;6877;51.436;6.774;2023-02-12T04:58:47;67.18;;;33.72;;
13611;SDS011;6877;51.436;6.774;2023-02-12T05:01:13;62.95;;;33.33;;
13611;SDS011;6877;51.436;6.774;2023-02-12T05:03:40;70.68;;;33.50;;
13611;SDS011;6877;51.436;6.774;2023-02-12T05:06:06;70.03;;;32.38;;
13611;SDS011;6877;51.436;6.774;2023-02-12T05:08:34;65.15;;;33.35;;
13611;SDS011;6877;51.436;6.774;2023-02-12T05:11:04;70.28;;;34.20;;
13611;SDS011;6877;51.436;6.774;2023-02-12T05:13:32;67.55;;;31.27;;
13611;SDS011;6877;51.436;6.774;2023-02-12T05:16:05;64.03;;;30.35;;
13611;SDS011;6877;51.436;6.774;2023-02-12T05:18:32;64.28;;;32.40;;
13611;SDS011;6877;51.436;6.774;2023-02-12T05:21:01;61.65;;;31.17;;
13611;SDS011;6877;51.436;6.774;2023-02-12T05:23:29;68.07;;;33.33;;
13611;SDS011;6877;51.436;6.774;2023-02-12T05:25:58;69.05;;;32.38;;
13611;SDS011;6877;51.436;6.774;2023-02-12T05:28:26;63.13;;;32.50;;
13611;SDS011;6877;51.436;6.774;2023-02-12T05:30:53;61.33;;;30.65;;
13611;SDS011;6877;51.436;6.774;2023-02-12T05:33:20;72.10;;;31.15;;
13611;SDS011;6877;51.436;6.774;2023-02-12T05:35:46;67.63;;;32.13;;
13611;SDS011;6877;51.436;6.774;2023-02-12T05:38:13;74.70;;;33.90;;
13611;SDS011;6877;51.436;6.774;2023-02-12T05:40:40;71.72;;;33.55;;
13611;SDS011;6877;51.436;6.774;2023-02-12T05:43:13;71.30;;;34.03;;
13611;SDS011;6877;51.436;6.774;2023-02-12T05:45:39;59.00;;;31.58;;
13611;SDS011;6877;51.436;6.774;2023-02-12T05:48:08;67.70;;;32.90;;
13611;SDS011;6877;51.436;6.774;2023-02-12T05:50:34;61.80;;;33.45;;
13611;SDS011;6877;51.436;6.774;2023-02-12T05:53:06;64.88;;;34.42;;
13611;SDS011;6877;51.436;6.774;2023-02-12T05:55:33;64.20;;;31.35;;
13611;SDS011;6877;51.436;6.774;2023-02-12T05:57:59;63.78;;;31.63;;
13611;SDS011;6877;51.436;6.774;2023-02-12T06:00:25;65.97;;;32.17;;
13611;SDS011;6877;51.436;6.774;2023-02-12T06:02:52;66.32;;;32.00;;
13611;SDS011;6877;51.436;6.774;2023-02-12T06:05:18;70.90;;;33.20;;
13611;SDS011;6877;51.436;6.774;2023-02-12T06:07:45;57.58;;;29.65;;
13611;SDS011;6877;51.436;6.774;2023-02-12T06:10:16;55.42;;;27.83;;
13611;SDS011;6877;51.436;6.774;2023-02-12T06:12:42;56.88;;;29.75;;
13611;SDS011;6877;51.436;6.774;2023-02-12T06:15:09;62.22;;;32.15;;
13611;SDS011;6877;51.436;6.774;2023-02-12T06:17:35;66.82;;;32.65;;
13611;SDS011;6877;51.436;6.774;2023-02-12T06:20:07;55.70;;;29.25;;
13611;SDS011;6877;51.436;6.774;2023-02-12T06:22:38;57.08;;;27.63;;
13611;SDS011;6877;51.436;6.774;2023-02-12T06:25:09;50.05;;;25.50;;
13611;SDS011;6877;51.436;6.774;2023-02-12T06:27:36;48.25;;;23.70;;
13611;SDS011;6877;51.436;6.774;2023-02-12T06:30:07;49.70;;;24.75;;
13611;SDS011;6877;51.436;6.774;2023-02-12T06:32:34;63.90;;;31.13;;
13611;SDS011;6877;51.436;6.774;2023-02-12T06:35:00;52.65;;;27.85;;
13611;SDS011;6877;51.436;6.774;2023-02-12T06:37:32;58.03;;;28.85;;
13611;SDS011;6877;51.436;6.774;2023-02-12T06:40:02;69.85;;;31.42;;
13611;SDS011;6877;51.436;6.774;2023-02-12T06:42:33;64.70;;;32.20;;
13611;SDS011;6877;51.436;6.774;2023-02-12T06:45:00;65.38;;;29.98;;
13611;SDS011;6877;51.436;6.774;2023-02-12T06:47:26;71.65;;;33.60;;
13611;SDS011;6877;51.436;6.774;2023-02-12T06:49:57;66.20;;;32.42;;
13611;SDS011;6877;51.436;6.774;2023-02-12T06:52:29;71.00;;;34.53;;
13611;SDS011;6877;51.436;6.774;2023-02-12T06:54:55;63.45;;;32.08;;
13611;SDS011;6877;51.436;6.774;2023-02-12T06:57:22;65.57;;;31.23;;
13611;SDS011;6877;51.436;6.774;2023-02-12T06:59:48;66.68;;;32.03;;
13611;SDS011;6877;51.436;6.774;2023-02-12T07:02:15;61.08;;;31.48;;
13611;SDS011;6877;51.436;6.774;2023-02-12T07:04:41;68.53;;;31.02;;
13611;SDS011;6877;51.436;6.774;2023-02-12T07:07:12;71.45;;;32.50;;
13611;SDS011;6877;51.436;6.774;2023-02-12T07:09:39;60.38;;;29.02;;
13611;SDS011;6877;51.436;6.774;2023-02-12T07:12:05;65.45;;;30.60;;
13611;SDS011;6877;51.436;6.774;2023-02-12T07:14:32;69.18;;;33.42;;
13611;SDS011;6877;51.436;6.774;2023-02-12T07:16:59;71.93;;;35.22;;
13611;SDS011;6877;51.436;6.774;2023-02-12T07:19:34;63.17;;;31.17;;
13611;SDS011;6877;51.436;6.774;2023-02-12T07:22:00;65.07;;;32.40;;
13611;SDS011;6877;51.436;6.774;2023-02-12T07:24:27;67.13;;;31.92;;
13611;SDS011;6877;51.436;6.774;2023-02-12T07:26:54;65.93;;;31.80;;
13611;SDS011;6877;51.436;6.774;2023-02-12T07:29:25;65.68;;;32.80;;
13611;SDS011;6877;51.436;6.774;2023-02-12T07:31:52;72.05;;;36.10;;
13611;SDS011;6877;51.436;6.774;2023-02-12T07:34:18;61.03;;;31.08;;
13611;SDS011;6877;51.436;6.774;2023-02-12T07:36:45;60.03;;;29.55;;
13611;SDS011;6877;51.436;6.774;2023-02-12T07:39:11;61.88;;;31.52;;
13611;SDS011;6877;51.436;6.774;2023-02-12T07:41:38;76.22;;;34.17;;
13611;SDS011;6877;51.436;6.774;2023-02-12T07:44:05;69.13;;;32.58;;
13611;SDS011;6877;51.436;6.774;2023-02-12T07:46:36;70.53;;;33.22;;
13611;SDS011;6877;51.436;6.774;2023-02-12T07:49:06;69.15;;;32.50;;
13611;SDS011;6877;51.436;6.774;2023-02-12T07:51:35;58.10;;;30.17;;
13611;SDS011;6877;51.436;6.774;2023-02-12T07:54:03;59.60;;;31.10;;
13611;SDS011;6877;51.436;6.774;2023-02-12T07:56:35;58.35;;;29.45;;
13611;SDS011;6877;51.436;6.774;2023-02-12T07:59:03;58.50;;;30.67;;
13611;SDS011;6877;51.436;6.774;2023-02-12T08:01:32;70.65;;;31.98;;
13611;SDS011;6877;51.436;6.774;2023-02-12T08:04:00;61.80;;;33.13;;
13611;SDS011;6877;51.436;6.774;2023-02-12T08:06:36;64.40;;;31.77;;
13611;SDS011;6877;51.436;6.774;2023-02-12T08:09:05;66.55;;;32.40;;
13611;SDS011;6877;51.436;6.774;2023-02-12T08:11:35;74.05;;;35.00;;
13611;SDS011;6877;51.436;6.774;2023-02-12T08:14:03;67.90;;;34.58;;
13611;SDS011;6877;51.436;6.774;2023-02-12T08:16:36;65.78;;;32.38;;
13611;SDS011;6877;51.436;6.774;2023-02-12T08:19:04;76.82;;;34.55;;
13611;SDS011;6877;51.436;6.774;2023-02-12T08:21:31;76.03;;;33.47;;
13611;SDS011;6877;51.436;6.774;2023-02-12T08:23:57;72.07;;;34.05;;
13611;SDS011;6877;51.436;6.774;2023-02-12T08:29:12;61.28;;;31.95;;
13611;SDS011;6877;51.436;6.774;2023-02-12T08:31:41;66.72;;;34.45;;
13611;SDS011;6877;51.436;6.774;2023-02-12T08:34:14;62.33;;;33.80;;
13611;SDS011;6877;51.436;6.774;2023-02-12T08:36:41;67.10;;;33.33;;
13611;SDS011;6877;51.436;6.774;2023-02-12T08:39:09;67.55;;;33.90;;
13611;SDS011;6877;51.436;6.774;2023-02-12T08:41:36;72.45;;;35.28;;
13611;SDS011;6877;51.436;6.774;2023-02-12T08:44:03;72.18;;;32.53;;
13611;SDS011;6877;51.436;6.774;2023-02-12T08:46:31;59.88;;;30.98;;
13611;SDS011;6877;51.436;6.774;2023-02-12T08:49:04;62.42;;;32.70;;
13611;SDS011;6877;51.436;6.774;2023-02-12T08:51:32;62.10;;;34.17;;
13611;SDS011;6877;51.436;6.774;2023-02-12T08:54:02;68.07;;;33.75;;
13611;SDS011;6877;51.436;6.774;2023-02-12T08:56:31;61.88;;;31.70;;
13611;SDS011;6877;51.436;6.774;2023-02-12T08:59:00;62.05;;;32.50;;
13611;SDS011;6877;51.436;6.774;2023-02-12T09:01:28;61.33;;;29.90;;
13611;SDS011;6877;51.436;6.774;2023-02-12T09:04:01;58.15;;;31.90;;
13611;SDS011;6877;51.436;6.774;2023-02-12T09:06:34;63.22;;;34.78;;
13611;SDS011;6877;51.436;6.774;2023-02-12T09:09:06;63.88;;;33.60;;
13611;SDS011;6877;51.436;6.774;2023-02-12T09:11:33;60.38;;;30.65;;
13611;SDS011;6877;51.436;6.774;2023-02-12T09:14:02;65.50;;;32.33;;
13611;SDS011;6877;51.436;6.774;2023-02-12T09:16:35;61.00;;;31.83;;
13611;SDS011;6877;51.436;6.774;2023-02-12T09:19:03;61.03;;;33.65;;
13611;SDS011;6877;51.436;6.774;2023-02-12T09:21:34;63.50;;;31.38;;
13611;SDS011;6877;51.436;6.774;2023-02-12T09:24:01;61.10;;;30.05;;
13611;SDS011;6877;51.436;6.774;2023-02-12T09:26:28;62.05;;;29.88;;
13611;SDS011;6877;51.436;6.774;2023-02-12T09:29:01;56.65;;;29.38;;
13611;SDS011;6877;51.436;6.774;2023-02-12T09:31:30;62.42;;;30.83;;
13611;SDS011;6877;51.436;6.774;2023-02-12T09:33:58;55.88;;;30.08;;
13611;SDS011;6877;51.436;6.774;2023-02-12T09:36:27;63.38;;;31.67;;
13611;SDS011;6877;51.436;6.774;2023-02-12T09:38:59;57.45;;;31.95;;
13611;SDS011;6877;51.436;6.774;2023-02-12T09:47:12;55.92;;;29.50;;
13611;SDS011;6877;51.436;6.774;2023-02-12T09:50:05;51.22;;;28.30;;
13611;SDS011;6877;51.436;6.774;2023-02-12T09:52:43;54.88;;;30.20;;
13611;SDS011;6877;51.436;6.774;2023-02-12T09:55:13;57.00;;;30.65;;
13611;SDS011;6877;51.436;6.774;2023-02-12T09:57:41;55.20;;;28.08;;
13611;SDS011;6877;51.436;6.774;2023-02-12T10:00:09;57.75;;;30.90;;
13611;SDS011;6877;51.436;6.774;2023-02-12T10:02:41;54.60;;;27.27;;
13611;SDS011;6877;51.436;6.774;2023-02-12T10:19:30;54.72;;;28.35;;
13611;SDS011;6877;51.436;6.774;2023-02-12T10:25:01;50.80;;;28.05;;
13611;SDS011;6877;51.436;6.774;2023-02-12T10:27:53;53.92;;;26.52;;
13611;SDS011;6877;51.436;6.774;2023-02-12T10:30:26;45.67;;;24.55;;
13611;SDS011;6877;51.436;6.774;2023-02-12T10:33:03;42.00;;;23.13;;
13611;SDS011;6877;51.436;6.774;2023-02-12T10:35:33;47.30;;;24.98;;
13611;SDS011;6877;51.436;6.774;2023-02-12T10:38:04;52.22;;;27.23;;
13611;SDS011;6877;51.436;6.774;2023-02-12T10:40:44;61.40;;;31.23;;
13611;SDS011;6877;51.436;6.774;2023-02-12T10:43:17;45.13;;;26.17;;
13611;SDS011;6877;51.436;6.774;2023-02-12T10:45:44;60.88;;;26.63;;
13611;SDS011;6877;51.436;6.774;2023-02-12T10:48:19;39.30;;;23.40;;
13611;SDS011;6877;51.436;6.774;2023-02-12T10:51:02;51.28;;;28.13;;
13611;SDS011;6877;51.436;6.774;2023-02-12T10:58:55;59.17;;;28.02;;
13611;SDS011;6877;51.436;6.774;2023-02-12T11:01:25;56.47;;;28.33;;
13611;SDS011;6877;51.436;6.774;2023-02-12T11:03:55;48.17;;;26.40;;
13611;SDS011;6877;51.436;6.774;2023-02-12T11:06:29;53.60;;;25.48;;
13611;SDS011;6877;51.436;6.774;2023-02-12T11:09:01;44.75;;;25.15;;
13611;SDS011;6877;51.436;6.774;2023-02-12T11:11:29;46.35;;;24.55;;
13611;SDS011;6877;51.436;6.774;2023-02-12T11:14:18;52.15;;;26.00;;
13611;SDS011;6877;51.436;6.774;2023-02-12T11:16:52;48.88;;;25.88;;
13611;SDS011;6877;51.436;6.774;2023-02-12T11:19:22;51.70;;;25.88;;
13611;SDS011;6877;51.436;6.774;2023-02-12T11:22:06;50.00;;;25.73;;
13611;SDS011;6877;51.436;6.774;2023-02-12T11:24:36;46.50;;;24.38;;
13611;SDS011;6877;51.436;6.774;2023-02-12T11:29:46;45.22;;;25.38;;
13611;SDS011;6877;51.436;6.774;2023-02-12T11:32:37;50.15;;;25.23;;
13611;SDS011;6877;51.436;6.774;2023-02-12T11:35:15;48.22;;;24.45;;
13611;SDS011;6877;51.436;6.774;2023-02-12T11:37:48;49.03;;;24.67;;
13611;SDS011;6877;51.436;6.774;2023-02-12T11:40:24;48.20;;;25.13;;
13611;SDS011;6877;51.436;6.774;2023-02-12T11:42:59;52.60;;;26.65;;
13611;SDS011;6877;51.436;6.774;2023-02-12T11:45:36;51.45;;;25.77;;
13611;SDS011;6877;51.436;6.774;2023-02-12T11:48:16;41.67;;;23.40;;
13611;SDS011;6877;51.436;6.774;2023-02-12T11:50:48;47.88;;;24.67;;
13611;SDS011;6877;51.436;6.774;2023-02-12T11:53:24;42.85;;;22.13;;
13611;SDS011;6877;51.436;6.774;2023-02-12T11:56:10;41.53;;;22.38;;
13611;SDS011;6877;51.436;6.774;2023-02-12T11:58:38;41.97;;;22.25;;
13611;SDS011;6877;51.436;6.774;2023-02-12T12:01:23;45.33;;;23.65;;
13611;SDS011;6877;51.436;6.774;2023-02-12T12:04:05;49.17;;;22.77;;
13611;SDS011;6877;51.436;6.774;2023-02-12T12:06:38;49.83;;;25.67;;
13611;SDS011;6877;51.436;6.774;2023-02-12T12:14:24;43.58;;;23.42;;
13611;SDS011;6877;51.436;6.774;2023-02-12T12:17:04;49.20;;;24.92;;
13611;SDS011;6877;51.436;6.774;2023-02-12T12:20:13;41.92;;;22.02;;
13611;SDS011;6877;51.436;6.774;2023-02-12T12:22:49;45.78;;;22.45;;
13611;SDS011;6877;51.436;6.774;2023-02-12T12:25:25;48.33;;;23.13;;
13611;SDS011;6877;51.436;6.774;2023-02-12T12:28:19;45.10;;;25.23;;
13611;SDS011;6877;51.436;6.774;2023-02-12T12:33:42;50.25;;;23.35;;
13611;SDS011;6877;51.436;6.774;2023-02-12T12:39:06;50.05;;;24.35;;
13611;SDS011;6877;51.436;6.774;2023-02-12T12:47:41;41.78;;;21.92;;
13611;SDS011;6877;51.436;6.774;2023-02-12T12:50:22;43.60;;;22.85;;
13611;SDS011;6877;51.436;6.774;2023-02-12T13:26:25;45.97;;;23.83;;
13611;SDS011;6877;51.436;6.774;2023-02-12T13:31:53;54.38;;;25.25;;
13611;SDS011;6877;51.436;6.774;2023-02-12T13:34:23;46.53;;;23.48;;
13611;SDS011;6877;51.436;6.774;2023-02-12T13:36:59;53.00;;;24.58;;
13611;SDS011;6877;51.436;6.774;2023-02-12T13:39:39;42.63;;;23.80;;
13611;SDS011;6877;51.436;6.774;2023-02-12T13:42:15;46.60;;;23.10;;
13611;SDS011;6877;51.436;6.774;2023-02-12T13:47:58;46.05;;;22.85;;
13611;SDS011;6877;51.436;6.774;2023-02-12T13:50:56;46.10;;;24.50;;
13611;SDS011;6877;51.436;6.774;2023-02-12T13:58:51;43.85;;;22.73;;
13611;SDS011;6877;51.436;6.774;2023-02-12T14:09:21;47.20;;;24.63;;
13611;SDS011;6877;51.436;6.774;2023-02-12T14:11:55;42.65;;;22.65;;
13611;SDS011;6877;51.436;6.774;2023-02-12T14:14:35;45.15;;;25.27;;
13611;SDS011;6877;51.436;6.774;2023-02-12T14:33:50;42.28;;;21.70;;
13611;SDS011;6877;51.436;6.774;2023-02-12T14:36:36;43.15;;;22.83;;
13611;SDS011;6877;51.436;6.774;2023-02-12T14:41:44;42.40;;;21.85;;
13611;SDS011;6877;51.436;6.774;2023-02-12T14:46:49;45.03;;;24.58;;
13611;SDS011;6877;51.436;6.774;2023-02-12T14:49:27;47.67;;;23.52;;
13611;SDS011;6877;51.436;6.774;2023-02-12T14:54:48;44.42;;;22.27;;
13611;SDS011;6877;51.436;6.774;2023-02-12T14:59:57;39.42;;;20.63;;
13611;SDS011;6877;51.436;6.774;2023-02-12T15:02:28;42.22;;;21.17;;
13611;SDS011;6877;51.436;6.774;2023-02-12T15:05:01;44.50;;;21.33;;
13611;SDS011;6877;51.436;6.774;2023-02-12T15:07:44;41.60;;;22.30;;
13611;SDS011;6877;51.436;6.774;2023-02-12T15:10:19;37.75;;;20.52;;
13611;SDS011;6877;51.436;6.774;2023-02-12T15:15:53;46.97;;;22.92;;
13611;SDS011;6877;51.436;6.774;2023-02-12T15:18:44;44.13;;;24.08;;
13611;SDS011;6877;51.436;6.774;2023-02-12T15:21:30;46.50;;;22.02;;
13611;SDS011;6877;51.436;6.774;2023-02-12T15:26:39;43.25;;;22.88;;
13611;SDS011;6877;51.436;6.774;2023-02-12T15:29:26;39.42;;;22.05;;
13611;SDS011;6877;51.436;6.774;2023-02-12T15:31:56;47.30;;;22.83;;
13611;SDS011;6877;51.436;6.774;2023-02-12T15:34:27;40.63;;;22.02;;
13611;SDS011;6877;51.436;6.774;2023-02-12T15:36:58;37.53;;;19.75;;
13611;SDS011;6877;51.436;6.774;2023-02-12T15:39:26;39.10;;;22.75;;
13611;SDS011;6877;51.436;6.774;2023-02-12T15:42:21;38.20;;;20.50;;
13611;SDS011;6877;51.436;6.774;2023-02-12T15:44:49;46.80;;;23.40;;
13611;SDS011;6877;51.436;6.774;2023-02-12T15:47:16;42.97;;;23.52;;
13611;SDS011;6877;51.436;6.774;2023-02-12T15:49:49;43.50;;;23.98;;
13611;SDS011;6877;51.436;6.774;2023-02-12T15:52:22;45.72;;;22.67;;
13611;SDS011;6877;51.436;6.774;2023-02-12T15:55:04;45.35;;;24.67;;
13611;SDS011;6877;51.436;6.774;2023-02-12T15:57:42;42.95;;;23.15;;
13611;SDS011;6877;51.436;6.774;2023-02-12T16:00:23;44.80;;;22.85;;
13611;SDS011;6877;51.436;6.774;2023-02-12T16:03:26;45.63;;;22.88;;
13611;SDS011;6877;51.436;6.774;2023-02-12T16:06:08;41.05;;;23.55;;
13611;SDS011;6877;51.436;6.774;2023-02-12T16:08:39;41.65;;;21.98;;
13611;SDS011;6877;51.436;6.774;2023-02-12T16:11:12;34.78;;;21.80;;
13611;SDS011;6877;51.436;6.774;2023-02-12T16:13:43;50.78;;;23.40;;
13611;SDS011;6877;51.436;6.774;2023-02-12T16:18:39;45.17;;;22.25;;
13611;SDS011;6877;51.436;6.774;2023-02-12T16:21:12;46.67;;;23.48;;
13611;SDS011;6877;51.436;6.774;2023-02-12T16:23:43;44.55;;;22.67;;
13611;SDS011;6877;51.436;6.774;2023-02-12T16:26:21;47.25;;;24.35;;
13611;SDS011;6877;51.436;6.774;2023-02-12T16:28:51;45.42;;;24.05;;
13611;SDS011;6877;51.436;6.774;2023-02-12T16:31:20;44.63;;;23.45;;
13611;SDS011;6877;51.436;6.774;2023-02-12T16:33:50;43.50;;;24.00;;
13611;SDS011;6877;51.436;6.774;2023-02-12T16:38:57;38.70;;;22.30;;
13611;SDS011;6877;51.436;6.774;2023-02-12T16:41:30;50.92;;;24.35;;
13611;SDS011;6877;51.436;6.774;2023-02-12T16:46:25;52.47;;;27.35;;
13611;SDS011;6877;51.436;6.774;2023-02-12T16:48:56;36.80;;;21.13;;
13611;SDS011;6877;51.436;6.774;2023-02-12T16:51:27;53.63;;;25.63;;
13611;SDS011;6877;51.436;6.774;2023-02-12T16:53:59;49.45;;;24.30;;
13611;SDS011;6877;51.436;6.774;2023-02-12T16:56:28;50.28;;;24.05;;
13611;SDS011;6877;51.436;6.774;2023-02-12T16:59:07;42.50;;;23.65;;
13611;SDS011;6877;51.436;6.774;2023-02-12T17:01:35;49.65;;;24.30;;
13611;SDS011;6877;51.436;6.774;2023-02-12T17:04:07;48.63;;;24.65;;
13611;SDS011;6877;51.436;6.774;2023-02-12T17:06:39;48.70;;;23.80;;
13611;SDS011;6877;51.436;6.774;2023-02-12T17:09:05;52.67;;;24.40;;
13611;SDS011;6877;51.436;6.774;2023-02-12T17:11:31;45.05;;;22.05;;
13611;SDS011;6877;51.436;6.774;2023-02-12T17:14:03;47.75;;;23.98;;
13611;SDS011;6877;51.436;6.774;2023-02-12T17:16:29;50.20;;;23.52;;
13611;SDS011;6877;51.436;6.774;2023-02-12T17:18:56;49.92;;;25.83;;
13611;SDS011;6877;51.436;6.774;2023-02-12T17:21:30;45.30;;;25.10;;
13611;SDS011;6877;51.436;6.774;2023-02-12T17:24:08;47.92;;;24.55;;
13611;SDS011;6877;51.436;6.774;2023-02-12T17:26:53;45.58;;;24.05;;
13611;SDS011;6877;51.436;6.774;2023-02-12T17:29:21;43.25;;;22.55;;
13611;SDS011;6877;51.436;6.774;2023-02-12T17:31:51;55.17;;;26.38;;
13611;SDS011;6877;51.436;6.774;2023-02-12T17:34:19;46.53;;;25.38;;
13611;SDS011;6877;51.436;6.774;2023-02-12T17:36:45;45.97;;;26.15;;
13611;SDS011;6877;51.436;6.774;2023-02-12T17:39:17;53.58;;;26.92;;
13611;SDS011;6877;51.436;6.774;2023-02-12T17:41:48;47.33;;;24.98;;
13611;SDS011;6877;51.436;6.774;2023-02-12T17:44:16;53.40;;;25.73;;
13611;SDS011;6877;51.436;6.774;2023-02-12T17:46:42;48.55;;;25.65;;
13611;SDS011;6877;51.436;6.774;2023-02-12T17:49:10;54.30;;;23.35;;
13611;SDS011;6877;51.436;6.774;2023-02-12T17:51:36;50.20;;;25.02;;
13611;SDS011;6877;51.436;6.774;2023-02-12T17:54:03;49.63;;;26.60;;
13611;SDS011;6877;51.436;6.774;2023-02-12T17:56:30;49.90;;;26.60;;
13611;SDS011;6877;51.436;6.774;2023-02-12T17:58:56;49.53;;;26.20;;
13611;SDS011;6877;51.436;6.774;2023-02-12T18:01:28;46.15;;;24.67;;
13611;SDS011;6877;51.436;6.774;2023-02-12T18:03:56;47.65;;;26.80;;
13611;SDS011;6877;51.436;6.774;2023-02-12T18:06:24;51.75;;;25.52;;
13611;SDS011;6877;51.436;6.774;2023-02-12T18:08:55;52.03;;;28.73;;
13611;SDS011;6877;51.436;6.774;2023-02-12T18:11:22;46.22;;;26.73;;
13611;SDS011;6877;51.436;6.774;2023-02-12T18:13:53;51.33;;;26.65;;